Time;durP1;ratioP1;P1;durP2;ratioP2;P2;SDS_P1;SDS_P2;PMS_P1;PMS_P2;Temp;Humidity;BMP_temperature;BMP_pressure;BME280_temperature;BME280_humidity;BME280_pressure;Samples;Min_cycle;Max_cycle;Signal;HPM_P1;HPM_P2
2023/05/21 00:02:16;;;;;;;12.48;10.07;;;14.70;99.90;;;;;;4970058;28;20252;-78
2023/05/21 00:04:43;;;;;;;11.30;10.15;;;14.70;99.90;;;;;;4973501;28;20588;-78
2023/05/21 00:07:11;;;;;;;12.20;10.93;;;14.80;99.90;;;;;;4970740;28;20670;-78
2023/05/21 00:09:40;;;;;;;10.95;9.68;;;14.80;99.90;;;;;;4989077;28;20204;-78
2023/05/21 00:12:08;;;;;;;11.52;9.68;;;14.80;99.90;;;;;;5007246;23;20231;-76
2023/05/21 00:14:36;;;;;;;11.70;10.05;;;14.80;99.90;;;;;;5024787;28;20195;-76
2023/05/21 00:17:04;;;;;;;12.00;10.65;;;14.80;99.90;;;;;;5012664;28;20188;-76
2023/05/21 00:19:32;;;;;;;10.98;9.43;;;14.70;99.90;;;;;;5011113;28;20206;-76
2023/05/21 00:22:03;;;;;;;12.38;9.35;;;14.90;99.90;;;;;;5012001;28;20220;-76
2023/05/21 00:24:30;;;;;;;11.10;9.90;;;14.90;99.90;;;;;;5006953;28;20581;-76
2023/05/21 00:26:59;;;;;;;9.90;8.82;;;14.80;99.90;;;;;;5010897;28;20677;-76
2023/05/21 00:29:28;;;;;;;10.75;9.32;;;14.80;99.90;;;;;;5001097;28;20196;-76
2023/05/21 00:31:56;;;;;;;12.23;9.75;;;14.80;99.90;;;;;;5001256;28;20225;-76
2023/05/21 00:34:52;;;;;;;10.93;9.73;;;14.70;99.90;;;;;;5010089;28;20206;-76
2023/05/21 00:37:20;;;;;;;9.73;8.82;;;14.70;99.90;;;;;;5009308;28;20207;-75
2023/05/21 00:39:48;;;;;;;10.63;9.27;;;14.70;99.90;;;;;;5010349;28;20210;-76
2023/05/21 00:42:17;;;;;;;10.23;9.13;;;14.70;99.90;;;;;;5010209;28;20220;-76
2023/05/21 00:44:45;;;;;;;10.43;9.38;;;14.70;99.90;;;;;;5010141;28;20212;-76
2023/05/21 00:47:13;;;;;;;10.65;9.18;;;14.70;99.90;;;;;;5008083;28;20204;-76
2023/05/21 00:49:41;;;;;;;9.85;8.55;;;14.80;99.90;;;;;;5011655;28;20211;-76
2023/05/21 00:52:08;;;;;;;10.60;9.50;;;14.80;99.90;;;;;;5012031;28;20215;-76
2023/05/21 00:54:36;;;;;;;10.45;9.35;;;14.80;99.90;;;;;;5010610;28;20203;-76
2023/05/21 00:57:04;;;;;;;9.73;8.60;;;14.70;99.90;;;;;;5009235;28;20226;-76
2023/05/21 00:59:33;;;;;;;10.13;8.55;;;14.70;99.90;;;;;;5010681;28;20203;-76
2023/05/21 01:02:05;;;;;;;10.43;9.30;;;14.60;99.90;;;;;;5022634;28;20243;-76
2023/05/21 01:04:32;;;;;;;9.20;8.30;;;14.60;99.90;;;;;;5011996;28;20219;-76
2023/05/21 01:07:00;;;;;;;10.40;9.40;;;14.50;99.90;;;;;;5011321;28;20199;-76
2023/05/21 01:09:28;;;;;;;9.90;8.50;;;14.40;99.90;;;;;;5010094;28;20219;-76
2023/05/21 01:11:56;;;;;;;10.85;8.18;;;14.40;99.90;;;;;;5010292;28;20242;-75
2023/05/21 01:14:24;;;;;;;9.43;8.48;;;14.40;99.90;;;;;;5006633;28;20658;-76
2023/05/21 01:16:53;;;;;;;10.60;8.88;;;14.50;99.90;;;;;;5009069;28;20203;-76
2023/05/21 01:19:23;;;;;;;8.77;7.93;;;14.30;99.90;;;;;;5005171;28;20212;-76
2023/05/21 01:21:56;;;;;;;10.40;8.00;;;14.30;99.90;;;;;;5010465;28;20242;-76
2023/05/21 01:24:25;;;;;;;9.20;8.20;;;14.30;99.90;;;;;;5006716;28;20222;-76
2023/05/21 01:26:52;;;;;;;10.02;8.07;;;14.30;99.90;;;;;;5003786;28;20223;-75
2023/05/21 01:29:20;;;;;;;9.93;8.85;;;14.30;99.90;;;;;;5003584;28;20207;-76
2023/05/21 01:31:59;;;;;;;9.45;8.45;;;14.30;99.90;;;;;;5008266;28;20711;-76
2023/05/21 01:34:32;;;;;;;9.65;8.65;;;14.40;99.90;;;;;;5009801;28;20203;-76
2023/05/21 01:37:06;;;;;;;8.95;8.05;;;14.30;99.90;;;;;;5009118;28;20704;-76
2023/05/21 01:39:41;;;;;;;8.40;7.57;;;14.40;99.90;;;;;;5010895;28;20187;-76
2023/05/21 01:42:10;;;;;;;9.52;7.95;;;14.40;99.90;;;;;;5001791;28;20215;-76
2023/05/21 01:44:38;;;;;;;9.70;7.90;;;14.30;99.90;;;;;;4998355;28;20222;-75
2023/05/21 01:47:06;;;;;;;7.88;7.07;;;14.30;99.90;;;;;;5004010;28;20200;-76
2023/05/21 01:49:34;;;;;;;8.23;7.32;;;14.10;99.90;;;;;;5005502;28;20246;-76
2023/05/21 01:52:02;;;;;;;8.27;7.47;;;14.20;99.90;;;;;;5005915;28;20222;-75
2023/05/21 01:54:30;;;;;;;9.15;7.63;;;14.20;99.90;;;;;;5008640;28;20191;-76
2023/05/21 01:56:58;;;;;;;7.97;7.18;;;14.20;99.90;;;;;;5009661;28;20191;-76
2023/05/21 01:59:26;;;;;;;8.52;7.70;;;14.30;99.90;;;;;;5005065;28;20214;-76
2023/05/21 02:01:54;;;;;;;8.45;7.50;;;14.20;99.90;;;;;;5007407;28;20216;-76
2023/05/21 02:04:21;;;;;;;8.45;7.28;;;14.20;99.90;;;;;;5005766;28;20199;-76
2023/05/21 02:06:48;;;;;;;7.80;6.90;;;14.20;99.90;;;;;;4996428;28;20208;-75
2023/05/21 02:09:16;;;;;;;7.47;6.68;;;14.30;99.90;;;;;;5005966;28;20211;-76
2023/05/21 02:11:44;;;;;;;8.45;7.20;;;14.30;99.90;;;;;;5005757;28;20211;-76
2023/05/21 02:14:13;;;;;;;7.70;7.00;;;14.20;99.90;;;;;;5008915;28;20202;-76
2023/05/21 02:16:41;;;;;;;9.00;7.45;;;14.30;99.90;;;;;;5006573;28;20234;-76
2023/05/21 02:19:10;;;;;;;8.00;7.20;;;14.20;99.90;;;;;;5008760;28;20204;-76
2023/05/21 02:21:37;;;;;;;7.55;6.72;;;14.20;99.90;;;;;;5022499;28;20692;-76
2023/05/21 02:24:05;;;;;;;8.48;7.53;;;14.30;99.90;;;;;;5007091;28;20203;-76
2023/05/21 02:26:33;;;;;;;8.88;7.28;;;14.20;99.90;;;;;;5008810;28;20214;-76
2023/05/21 02:29:01;;;;;;;9.00;6.97;;;14.20;99.90;;;;;;5006152;28;20204;-76
2023/05/21 02:31:29;;;;;;;7.32;6.63;;;14.30;99.90;;;;;;5003253;28;20565;-76
2023/05/21 02:33:57;;;;;;;7.93;6.90;;;14.20;99.90;;;;;;5020070;28;20200;-76
2023/05/21 02:36:25;;;;;;;7.25;6.60;;;14.20;99.90;;;;;;5001329;28;20195;-76
2023/05/21 02:38:53;;;;;;;8.13;7.05;;;14.00;99.90;;;;;;5000865;28;20204;-75
2023/05/21 02:41:22;;;;;;;9.27;7.32;;;14.10;99.90;;;;;;5004757;28;20202;-76
2023/05/21 02:43:49;;;;;;;8.15;7.00;;;14.10;99.90;;;;;;5005396;28;20223;-75
2023/05/21 02:46:17;;;;;;;8.45;7.60;;;14.10;99.90;;;;;;5007275;28;20223;-76
2023/05/21 02:48:46;;;;;;;8.30;7.00;;;14.10;99.90;;;;;;5016910;28;20202;-75
2023/05/21 02:51:13;;;;;;;8.50;7.25;;;14.20;99.90;;;;;;5008137;28;20195;-75
2023/05/21 02:53:40;;;;;;;7.28;6.57;;;14.20;99.90;;;;;;5010611;28;20219;-75
2023/05/21 02:56:08;;;;;;;9.10;7.63;;;14.20;99.90;;;;;;5025742;28;20229;-76
2023/05/21 02:58:35;;;;;;;8.20;6.80;;;14.20;99.90;;;;;;5020640;28;20211;-76
2023/05/21 03:01:03;;;;;;;7.90;7.10;;;14.30;99.90;;;;;;5003751;28;20200;-76
2023/05/21 03:03:31;;;;;;;7.43;6.72;;;14.10;99.90;;;;;;5004849;28;20704;-75
2023/05/21 03:06:00;;;;;;;8.25;7.45;;;14.00;99.90;;;;;;5007297;28;20215;-76
2023/05/21 03:08:27;;;;;;;8.15;7.35;;;14.10;99.90;;;;;;5020931;28;20218;-75
2023/05/21 03:10:55;;;;;;;9.05;7.53;;;14.10;99.90;;;;;;5016980;28;20203;-76
2023/05/21 03:13:22;;;;;;;9.43;6.78;;;14.10;99.90;;;;;;5019868;28;20223;-75
2023/05/21 03:15:54;;;;;;;8.10;7.30;;;14.10;99.90;;;;;;5005686;28;20563;-75
2023/05/21 03:18:22;;;;;;;9.48;7.63;;;14.00;99.90;;;;;;5006202;28;20205;-75
2023/05/21 03:20:49;;;;;;;9.93;7.85;;;14.00;99.90;;;;;;5007606;28;20207;-75
2023/05/21 03:23:18;;;;;;;8.95;7.82;;;14.00;99.90;;;;;;5012520;28;20236;-76
2023/05/21 03:25:45;;;;;;;9.57;8.20;;;14.00;99.90;;;;;;5009374;28;20216;-76
2023/05/21 03:28:13;;;;;;;8.07;7.28;;;14.00;99.90;;;;;;5009102;28;20568;-76
2023/05/21 03:30:48;;;;;;;8.15;7.35;;;13.80;99.90;;;;;;5011827;28;20207;-76
2023/05/21 03:33:34;;;;;;;8.93;6.97;;;13.90;99.90;;;;;;5010492;28;20230;-75
2023/05/21 03:36:10;;;;;;;9.15;8.07;;;14.00;99.90;;;;;;5005501;28;20203;-76
2023/05/21 03:38:39;;;;;;;9.00;8.10;;;14.00;99.90;;;;;;5010918;28;20207;-76
2023/05/21 03:41:08;;;;;;;10.98;8.70;;;13.90;99.90;;;;;;5009469;28;20203;-75
2023/05/21 03:43:35;;;;;;;8.95;7.95;;;13.90;99.90;;;;;;5006273;28;20701;-76
2023/05/21 03:46:03;;;;;;;8.45;7.70;;;14.00;99.90;;;;;;5008519;28;20215;-76
2023/05/21 03:48:49;;;;;;;10.40;7.35;;;13.90;99.90;;;;;;5016928;28;20195;-76
2023/05/21 03:51:20;;;;;;;9.68;8.50;;;13.90;99.90;;;;;;5005575;28;20223;-76
2023/05/21 03:53:49;;;;;;;8.40;7.60;;;14.00;99.90;;;;;;5005943;28;20224;-76
2023/05/21 03:56:17;;;;;;;8.35;7.55;;;14.00;99.90;;;;;;5006551;28;20192;-75
2023/05/21 03:58:45;;;;;;;10.02;9.10;;;14.10;99.90;;;;;;5003946;28;20212;-76
2023/05/21 04:01:13;;;;;;;8.73;7.82;;;14.10;99.90;;;;;;5030185;28;20203;-78
2023/05/21 04:03:41;;;;;;;8.38;7.57;;;14.00;99.90;;;;;;5010768;28;20226;-78
2023/05/21 04:06:09;;;;;;;9.43;7.78;;;14.00;99.90;;;;;;5014725;28;20211;-78
2023/05/21 04:08:37;;;;;;;8.60;7.47;;;14.00;99.90;;;;;;5010041;28;20196;-78
2023/05/21 04:11:06;;;;;;;8.60;7.82;;;13.90;99.90;;;;;;5019881;28;20203;-79
2023/05/21 04:13:33;;;;;;;9.38;8.02;;;14.00;99.90;;;;;;5004856;28;20220;-79
2023/05/21 04:16:01;;;;;;;12.00;8.55;;;13.90;99.90;;;;;;5010895;28;20560;-78
2023/05/21 04:18:28;;;;;;;8.63;7.82;;;13.90;99.90;;;;;;5010317;28;20196;-79
2023/05/21 04:20:57;;;;;;;8.20;7.50;;;13.80;99.90;;;;;;5013011;28;20195;-79
2023/05/21 04:23:24;;;;;;;10.50;8.02;;;13.80;99.90;;;;;;5011962;28;20219;-79
2023/05/21 04:25:53;;;;;;;9.13;8.23;;;13.70;99.90;;;;;;5011796;28;20220;-78
2023/05/21 04:28:23;;;;;;;9.25;8.27;;;13.80;99.90;;;;;;5010386;28;20211;-78
2023/05/21 04:30:50;;;;;;;9.05;8.13;;;13.90;99.90;;;;;;5013267;28;20199;-79
2023/05/21 04:33:18;;;;;;;9.15;7.38;;;14.00;99.90;;;;;;5008887;28;20220;-79
2023/05/21 04:35:48;;;;;;;10.70;8.23;;;14.10;99.90;;;;;;5010496;28;20204;-80
2023/05/21 04:38:18;;;;;;;9.48;8.45;;;14.00;99.90;;;;;;5008318;28;20200;-79
2023/05/21 04:40:46;;;;;;;8.65;7.47;;;14.00;99.90;;;;;;5004881;28;20204;-77
2023/05/21 04:43:15;;;;;;;8.80;7.97;;;14.00;99.90;;;;;;5010227;28;20219;-79
2023/05/21 04:45:44;;;;;;;8.30;7.50;;;14.00;99.90;;;;;;5012140;28;20211;-79
2023/05/21 04:48:14;;;;;;;9.40;8.43;;;14.00;99.90;;;;;;5012795;28;20199;-79
2023/05/21 04:50:42;;;;;;;9.95;8.43;;;14.00;99.90;;;;;;5029279;28;20565;-77
2023/05/21 04:53:10;;;;;;;9.18;8.27;;;13.80;99.90;;;;;;5015378;28;20253;-79
2023/05/21 04:55:38;;;;;;;10.13;8.73;;;13.80;99.90;;;;;;5014380;28;20199;-79
2023/05/21 04:58:06;;;;;;;9.50;7.85;;;14.00;99.90;;;;;;5011869;28;20239;-77
2023/05/21 05:00:36;;;;;;;9.70;8.70;;;14.10;99.90;;;;;;5011134;28;20207;-79
2023/05/21 05:03:05;;;;;;;8.73;7.82;;;14.10;99.90;;;;;;5006764;28;20226;-79
2023/05/21 05:05:32;;;;;;;9.05;8.15;;;14.20;99.90;;;;;;5010286;28;20196;-79
2023/05/21 05:08:00;;;;;;;9.30;8.40;;;14.20;99.90;;;;;;5009035;28;20211;-79
2023/05/21 05:10:27;;;;;;;9.20;8.30;;;14.20;99.90;;;;;;5010279;28;20571;-79
2023/05/21 05:12:56;;;;;;;13.73;8.55;;;14.20;99.90;;;;;;5009503;28;20234;-79
2023/05/21 05:15:23;;;;;;;11.52;7.63;;;14.30;99.90;;;;;;5008179;28;20689;-79
2023/05/21 05:17:53;;;;;;;9.95;8.95;;;14.40;99.90;;;;;;5002931;28;20203;-78
2023/05/21 05:20:22;;;;;;;9.70;8.48;;;14.40;99.90;;;;;;5003351;28;20658;-77
2023/05/21 05:22:50;;;;;;;8.45;7.65;;;14.30;99.90;;;;;;5009799;28;20250;-78
2023/05/21 05:25:18;;;;;;;9.43;8.43;;;14.30;99.90;;;;;;5003647;28;20659;-79
2023/05/21 05:27:46;;;;;;;8.77;7.88;;;14.30;99.90;;;;;;5003769;28;20216;-79
2023/05/21 05:30:14;;;;;;;9.40;8.43;;;14.30;99.90;;;;;;5005897;28;20207;-78
2023/05/21 05:32:42;;;;;;;9.13;8.18;;;14.40;99.90;;;;;;5003794;28;20239;-78
2023/05/21 05:35:10;;;;;;;9.20;8.25;;;14.50;99.90;;;;;;5007736;28;20215;-79
2023/05/21 05:37:38;;;;;;;8.85;7.95;;;14.60;99.90;;;;;;5007242;28;20200;-79
2023/05/21 05:40:07;;;;;;;9.65;8.65;;;14.60;99.90;;;;;;5024645;28;20195;-79
2023/05/21 05:42:35;;;;;;;9.32;8.43;;;14.60;99.90;;;;;;5030781;28;20219;-79
2023/05/21 05:45:11;;;;;;;10.43;8.52;;;14.40;99.90;;;;;;5012861;28;20189;-78
2023/05/21 05:47:38;;;;;;;9.15;8.20;;;14.30;99.90;;;;;;5009758;28;20212;-78
2023/05/21 05:50:07;;;;;;;9.55;8.63;;;14.40;99.90;;;;;;5007509;28;20208;-79
2023/05/21 05:52:34;;;;;;;9.40;8.50;;;14.40;99.90;;;;;;5009528;28;20219;-79
2023/05/21 05:55:07;;;;;;;9.85;8.85;;;14.40;99.90;;;;;;5000999;28;20195;-79
2023/05/21 05:57:35;;;;;;;9.25;8.27;;;14.60;99.90;;;;;;5000509;28;20203;-79
2023/05/21 06:00:09;;;;;;;9.85;8.57;;;14.70;99.90;;;;;;5002888;28;20214;-79
2023/05/21 06:02:40;;;;;;;9.25;8.27;;;14.70;99.90;;;;;;5008277;28;20230;-79
2023/05/21 06:05:09;;;;;;;9.15;8.25;;;14.70;99.90;;;;;;5004759;28;20202;-77
2023/05/21 06:07:38;;;;;;;9.15;8.27;;;14.80;99.90;;;;;;5010188;28;20219;-79
2023/05/21 06:10:08;;;;;;;10.23;9.07;;;14.80;99.90;;;;;;5006316;28;20191;-79
2023/05/21 06:12:36;;;;;;;10.98;8.98;;;14.90;99.90;;;;;;5005710;28;20238;-77
2023/05/21 06:15:04;;;;;;;9.45;8.55;;;14.90;99.90;;;;;;5007749;28;20740;-79
2023/05/21 06:17:32;;;;;;;10.02;8.90;;;14.80;99.90;;;;;;5022438;28;20196;-78
2023/05/21 06:20:01;;;;;;;11.90;9.70;;;14.80;99.90;;;;;;5008708;28;20203;-78
2023/05/21 06:22:29;;;;;;;10.57;9.32;;;14.70;99.90;;;;;;5004727;28;20227;-78
2023/05/21 06:24:56;;;;;;;10.35;9.13;;;14.80;99.90;;;;;;5009213;28;20214;-77
2023/05/21 06:27:25;;;;;;;11.57;9.38;;;14.80;99.90;;;;;;5005858;28;20224;-79
2023/05/21 06:29:53;;;;;;;10.13;8.95;;;14.80;99.90;;;;;;5004330;28;20206;-78
2023/05/21 06:32:21;;;;;;;10.48;9.35;;;14.90;99.90;;;;;;5006636;28;20219;-77
2023/05/21 06:34:49;;;;;;;10.32;9.15;;;14.90;99.90;;;;;;5010114;28;20203;-78
2023/05/21 06:37:20;;;;;;;11.85;9.73;;;14.90;99.90;;;;;;5009026;28;20568;-78
2023/05/21 06:39:48;;;;;;;10.93;9.77;;;15.00;99.90;;;;;;5009123;28;20204;-77
2023/05/21 06:42:17;;;;;;;11.32;9.55;;;15.10;99.90;;;;;;5004973;28;20227;-76
2023/05/21 06:44:54;;;;;;;13.10;10.40;;;15.20;99.90;;;;;;5021223;28;20207;-77
2023/05/21 06:47:37;;;;;;;10.82;9.70;;;15.20;99.90;;;;;;5008460;28;20216;-78
2023/05/21 06:50:05;;;;;;;12.57;10.07;;;15.30;99.90;;;;;;5004941;28;20693;-76
2023/05/21 06:52:33;;;;;;;12.23;10.40;;;15.20;99.90;;;;;;5023911;28;20219;-78
2023/05/21 06:55:02;;;;;;;10.98;9.98;;;15.20;99.90;;;;;;5004297;28;20203;-78
2023/05/21 06:57:40;;;;;;;11.90;10.68;;;15.40;99.90;;;;;;5011601;28;20657;-78
2023/05/21 07:00:12;;;;;;;14.35;10.65;;;15.40;99.90;;;;;;5012257;28;20204;-78
2023/05/21 07:02:40;;;;;;;11.23;10.13;;;15.40;99.90;;;;;;5013542;28;20303;-77
2023/05/21 07:05:10;;;;;;;12.95;10.65;;;15.40;99.90;;;;;;5008922;28;20199;-78
2023/05/21 07:07:37;;;;;;;12.60;10.90;;;15.40;99.90;;;;;;5011237;28;20577;-77
2023/05/21 07:10:07;;;;;;;11.00;9.90;;;15.50;99.90;;;;;;5010194;28;20204;-78
2023/05/21 07:12:34;;;;;;;12.02;10.63;;;15.70;99.90;;;;;;5012526;28;20272;-79
2023/05/21 07:15:07;;;;;;;12.23;10.40;;;15.80;99.90;;;;;;5012962;28;20700;-79
2023/05/21 07:17:37;;;;;;;12.25;10.65;;;15.90;99.90;;;;;;5011529;28;20218;-80
2023/05/21 07:20:06;;;;;;;12.52;11.32;;;15.90;99.90;;;;;;5018393;28;20199;-80
2023/05/21 07:22:34;;;;;;;11.77;10.60;;;16.00;99.90;;;;;;5017459;28;20218;-79
2023/05/21 07:25:01;;;;;;;12.52;11.23;;;16.00;99.90;;;;;;5010846;28;20200;-80
2023/05/21 07:27:29;;;;;;;12.15;10.95;;;16.10;99.90;;;;;;5012589;28;20212;-80
2023/05/21 07:29:56;;;;;;;12.52;11.35;;;16.10;99.90;;;;;;5015729;28;20196;-79
2023/05/21 07:32:25;;;;;;;12.15;10.90;;;16.10;99.90;;;;;;5014087;28;20215;-79
2023/05/21 07:34:54;;;;;;;12.57;11.05;;;16.20;99.90;;;;;;5012868;28;20200;-77
2023/05/21 07:37:24;;;;;;;13.82;12.25;;;16.30;99.90;;;;;;5003172;28;20204;-78
2023/05/21 07:39:51;;;;;;;13.45;11.07;;;16.30;99.90;;;;;;5010847;28;20217;-77
2023/05/21 07:42:21;;;;;;;12.90;11.00;;;16.30;99.90;;;;;;5009813;28;20220;-78
2023/05/21 07:44:49;;;;;;;12.10;10.88;;;16.20;99.90;;;;;;5010221;28;20195;-78
2023/05/21 07:47:16;;;;;;;17.70;13.32;;;16.30;99.90;;;;;;5008569;28;20222;-79
2023/05/21 07:49:45;;;;;;;16.08;12.55;;;16.30;99.90;;;;;;5008565;28;20199;-78
2023/05/21 07:52:14;;;;;;;13.00;11.55;;;16.40;99.90;;;;;;5004743;28;20227;-78
2023/05/21 07:54:42;;;;;;;15.45;12.35;;;16.50;99.90;;;;;;5011681;28;20198;-79
2023/05/21 07:57:09;;;;;;;14.20;12.30;;;16.50;99.90;;;;;;5012393;28;20203;-80
2023/05/21 07:59:53;;;;;;;13.60;12.13;;;16.60;99.90;;;;;;5008564;28;20210;-76
2023/05/21 08:02:21;;;;;;;16.35;12.75;;;16.40;99.90;;;;;;5012374;28;20574;-78
2023/05/21 08:04:49;;;;;;;13.23;11.90;;;16.50;99.90;;;;;;5013053;28;20204;-78
2023/05/21 08:07:18;;;;;;;13.65;11.85;;;16.50;99.90;;;;;;5012757;28;20211;-79
2023/05/21 08:09:46;;;;;;;15.63;12.00;;;16.50;99.90;;;;;;5013506;28;20204;-78
2023/05/21 08:12:14;;;;;;;12.85;11.57;;;16.60;99.90;;;;;;5012276;28;20227;-79
2023/05/21 08:14:42;;;;;;;12.90;11.45;;;16.60;99.90;;;;;;5009108;28;20211;-77
2023/05/21 08:17:11;;;;;;;13.32;11.85;;;16.60;99.90;;;;;;5006228;28;20207;-79
2023/05/21 08:19:38;;;;;;;14.38;11.45;;;16.60;99.90;;;;;;5011859;28;20581;-78
2023/05/21 08:22:06;;;;;;;13.43;11.80;;;16.70;99.90;;;;;;5015611;28;20215;-78
2023/05/21 08:24:39;;;;;;;13.55;12.13;;;16.80;99.90;;;;;;5022962;28;20199;-78
2023/05/21 08:27:07;;;;;;;15.02;12.80;;;17.00;99.90;;;;;;5016267;28;20199;-78
2023/05/21 08:29:35;;;;;;;16.23;12.02;;;17.00;99.90;;;;;;5015719;28;20588;-79
2023/05/21 08:32:03;;;;;;;14.13;12.68;;;17.00;99.90;;;;;;5018161;28;20211;-78
2023/05/21 08:34:31;;;;;;;13.50;12.10;;;17.00;99.90;;;;;;5017370;28;20195;-79
2023/05/21 08:37:14;;;;;;;13.77;12.07;;;17.00;99.90;;;;;;5016251;28;20204;-78
2023/05/21 08:40:00;;;;;;;14.75;12.68;;;17.10;99.90;;;;;;5008940;28;20205;-78
2023/05/21 08:42:39;;;;;;;14.15;12.73;;;17.10;99.90;;;;;;5016091;28;20211;-77
2023/05/21 08:45:11;;;;;;;14.10;12.70;;;17.20;99.90;;;;;;5004175;28;20246;-78
2023/05/21 08:47:41;;;;;;;15.88;12.75;;;17.20;99.90;;;;;;5016871;28;20210;-79
2023/05/21 08:50:11;;;;;;;14.68;12.82;;;17.30;99.90;;;;;;5000422;28;20188;-79
2023/05/21 08:52:39;;;;;;;16.73;13.32;;;17.40;99.90;;;;;;5016790;28;20230;-78
2023/05/21 08:55:10;;;;;;;15.27;13.68;;;17.60;99.90;;;;;;5016229;28;20207;-79
2023/05/21 08:57:42;;;;;;;17.15;14.27;;;17.40;99.90;;;;;;5014659;28;20206;-78
2023/05/21 09:00:11;;;;;;;15.95;13.25;;;17.40;99.90;;;;;;5005346;28;20203;-78
2023/05/21 09:02:42;;;;;;;16.27;14.45;;;17.60;99.90;;;;;;5009586;28;20216;-78
2023/05/21 09:05:10;;;;;;;14.15;12.75;;;17.50;99.90;;;;;;4997282;28;20204;-78
2023/05/21 09:07:43;;;;;;;15.65;14.05;;;17.60;99.90;;;;;;4996905;28;20208;-79
2023/05/21 09:10:26;;;;;;;15.85;14.15;;;17.80;99.90;;;;;;5012115;28;20244;-78
2023/05/21 09:12:54;;;;;;;16.25;14.45;;;17.80;99.90;;;;;;5013237;28;20235;-79
2023/05/21 09:15:22;;;;;;;15.93;13.25;;;18.00;99.90;;;;;;5016073;28;20191;-79
2023/05/21 09:17:49;;;;;;;15.68;14.10;;;18.00;99.90;;;;;;5013540;28;20654;-78
2023/05/21 09:20:33;;;;;;;16.50;14.32;;;18.00;99.90;;;;;;5010602;28;20202;-79
2023/05/21 09:23:04;;;;;;;16.17;14.50;;;18.10;99.90;;;;;;5011293;28;20215;-78
2023/05/21 09:25:38;;;;;;;13.30;11.90;;;18.20;99.90;;;;;;5010262;28;20201;-79
2023/05/21 09:28:14;;;;;;;12.98;11.65;;;18.40;99.90;;;;;;5004986;28;20215;-79
2023/05/21 09:30:46;;;;;;;12.93;11.57;;;18.60;99.90;;;;;;5012696;28;20203;-78
2023/05/21 09:33:26;;;;;;;13.57;12.18;;;18.80;99.90;;;;;;5012401;28;20216;-79
2023/05/21 09:35:53;;;;;;;13.70;11.70;;;18.90;99.90;;;;;;5013762;28;20199;-79
2023/05/21 09:38:23;;;;;;;16.20;13.25;;;19.10;99.90;;;;;;5005614;28;20193;-79
2023/05/21 09:40:55;;;;;;;14.30;12.38;;;19.10;99.90;;;;;;5007898;28;20200;-79
2023/05/21 09:43:23;;;;;;;13.30;12.00;;;19.20;99.90;;;;;;5010243;28;20223;-79
2023/05/21 09:45:52;;;;;;;14.57;13.07;;;19.10;99.90;;;;;;5012836;28;20207;-80
2023/05/21 09:48:34;;;;;;;15.13;13.18;;;19.10;99.90;;;;;;5008185;28;20587;-80
2023/05/21 09:51:11;;;;;;;15.35;13.75;;;19.20;99.90;;;;;;5008319;28;20214;-79
2023/05/21 09:53:50;;;;;;;26.25;17.75;;;19.10;99.90;;;;;;5010898;28;20231;-79
2023/05/21 09:56:22;;;;;;;22.73;17.90;;;19.10;99.90;;;;;;5001966;28;20705;-78
2023/05/21 09:58:53;;;;;;;33.85;20.20;;;19.00;99.90;;;;;;5005970;28;20207;-79
2023/05/21 10:01:21;;;;;;;21.20;17.70;;;19.00;99.90;;;;;;5004852;28;20200;-77
2023/05/21 10:03:54;;;;;;;17.45;15.18;;;19.00;99.90;;;;;;5009836;28;20239;-79
2023/05/21 10:06:24;;;;;;;18.23;14.75;;;18.90;99.90;;;;;;5008883;28;20697;-79
2023/05/21 10:08:54;;;;;;;17.13;15.00;;;18.90;99.90;;;;;;5016202;28;20223;-79
2023/05/21 10:11:26;;;;;;;15.27;13.68;;;19.00;99.90;;;;;;5009496;28;20222;-79
2023/05/21 10:14:01;;;;;;;17.50;14.40;;;18.90;99.90;;;;;;5008201;28;20238;-78
2023/05/21 10:16:32;;;;;;;17.42;14.82;;;18.80;99.90;;;;;;5010496;28;20565;-79
2023/05/21 10:19:00;;;;;;;17.17;14.55;;;18.80;99.90;;;;;;5007078;28;20704;-80
2023/05/21 10:21:28;;;;;;;15.82;13.55;;;19.10;99.90;;;;;;5010568;28;20215;-80
2023/05/21 10:23:57;;;;;;;14.65;13.07;;;19.20;99.90;;;;;;5009160;28;20234;-79
2023/05/21 10:26:26;;;;;;;16.42;13.70;;;19.10;99.90;;;;;;5010169;28;20668;-79
2023/05/21 10:28:58;;;;;;;16.15;14.55;;;19.30;99.90;;;;;;5010828;28;20562;-79
2023/05/21 10:31:26;;;;;;;16.52;13.35;;;19.30;99.90;;;;;;5007150;28;20203;-77
2023/05/21 10:33:54;;;;;;;15.48;13.88;;;19.40;99.90;;;;;;5010061;28;20219;-77
2023/05/21 10:36:23;;;;;;;16.05;14.32;;;19.50;99.90;;;;;;5010672;28;20200;-79
2023/05/21 10:38:51;;;;;;;18.27;15.30;;;19.50;99.90;;;;;;5009788;28;20207;-78
2023/05/21 10:41:21;;;;;;;16.05;14.40;;;19.30;99.90;;;;;;5005298;28;20278;-79
2023/05/21 10:44:02;;;;;;;17.45;15.27;;;19.40;99.90;;;;;;5007533;28;20234;-78
2023/05/21 10:46:43;;;;;;;18.10;16.00;;;19.40;99.90;;;;;;5009257;28;20199;-77
2023/05/21 10:49:30;;;;;;;17.02;15.23;;;19.40;99.90;;;;;;5010438;28;20207;-79
2023/05/21 10:52:07;;;;;;;16.75;15.05;;;19.60;99.90;;;;;;5008456;28;20299;-78
2023/05/21 10:54:54;;;;;;;17.70;15.52;;;19.60;99.90;;;;;;5004288;28;20200;-78
2023/05/21 10:57:42;;;;;;;17.65;14.73;;;19.60;99.90;;;;;;5012146;28;20208;-78
2023/05/21 11:00:13;;;;;;;18.35;16.48;;;19.80;99.90;;;;;;5020202;28;20215;-79
2023/05/21 11:02:40;;;;;;;19.25;16.35;;;19.90;99.90;;;;;;5008883;28;20223;-77
2023/05/21 11:05:08;;;;;;;19.33;17.02;;;19.60;99.90;;;;;;5006660;28;20195;-78
2023/05/21 11:07:57;;;;;;;19.25;17.08;;;19.70;99.90;;;;;;5012889;28;20203;-78
2023/05/21 11:10:31;;;;;;;19.40;16.80;;;19.70;99.90;;;;;;5001146;28;20228;-78
2023/05/21 11:13:07;;;;;;;17.80;16.00;;;19.80;99.90;;;;;;5008860;28;20254;-78
2023/05/21 11:16:06;;;;;;;19.27;16.00;;;19.90;99.90;;;;;;5001752;28;20196;-77
2023/05/21 11:19:00;;;;;;;16.45;14.75;;;19.90;99.90;;;;;;5002997;28;20200;-78
2023/05/21 11:21:39;;;;;;;16.67;15.00;;;19.90;99.90;;;;;;5027711;28;20211;-83
2023/05/21 11:24:09;;;;;;;17.88;15.98;;;20.20;99.90;;;;;;5013668;28;20280;-79
2023/05/21 11:27:04;;;;;;;17.02;15.23;;;20.20;99.90;;;;;;5010818;28;20197;-78
2023/05/21 11:29:43;;;;;;;18.88;15.93;;;20.40;99.90;;;;;;4996026;28;20216;-78
2023/05/21 11:32:13;;;;;;;16.85;15.07;;;20.30;99.90;;;;;;5010744;28;20224;-79
2023/05/21 11:34:44;;;;;;;20.17;16.95;;;20.30;99.90;;;;;;5014575;28;20226;-79
2023/05/21 11:37:29;;;;;;;19.58;16.77;;;20.30;99.90;;;;;;5002084;28;20206;-78
2023/05/21 11:39:58;;;;;;;20.42;18.33;;;20.30;99.90;;;;;;5032116;28;20195;-78
2023/05/21 11:42:31;;;;;;;19.10;16.73;;;20.20;99.90;;;;;;5011269;28;20674;-77
2023/05/21 11:44:59;;;;;;;19.58;17.40;;;20.00;99.90;;;;;;5019915;28;20215;-79
2023/05/21 11:47:30;;;;;;;21.83;17.52;;;20.40;99.90;;;;;;5016397;28;20200;-78
2023/05/21 11:50:00;;;;;;;19.48;16.85;;;20.60;99.90;;;;;;5009145;28;20566;-78
2023/05/21 11:52:29;;;;;;;19.08;15.63;;;20.60;99.90;;;;;;5013343;28;20232;-79
2023/05/21 11:54:58;;;;;;;17.67;15.70;;;20.70;99.90;;;;;;5013674;28;20191;-78
2023/05/21 11:57:29;;;;;;;17.50;15.60;;;20.80;99.90;;;;;;5008345;28;20207;-77
2023/05/21 11:59:58;;;;;;;17.55;15.75;;;20.60;99.90;;;;;;5016748;28;20204;-78
2023/05/21 12:02:31;;;;;;;18.65;16.70;;;20.80;99.90;;;;;;5013205;28;20230;-78
2023/05/21 12:05:02;;;;;;;18.88;16.85;;;21.00;99.90;;;;;;5009476;28;20207;-78
2023/05/21 12:07:30;;;;;;;20.23;18.15;;;21.10;99.90;;;;;;5018595;28;20214;-78
2023/05/21 12:09:58;;;;;;;18.90;16.85;;;21.10;99.90;;;;;;5015835;28;20554;-78
2023/05/21 12:12:26;;;;;;;23.20;17.52;;;21.40;99.90;;;;;;5010591;28;20250;-78
2023/05/21 12:14:55;;;;;;;19.10;17.13;;;21.40;99.90;;;;;;5014206;28;20210;-80
2023/05/21 12:17:24;;;;;;;22.00;18.77;;;21.50;99.90;;;;;;5013560;28;20206;-79
2023/05/21 12:19:55;;;;;;;19.35;17.27;;;21.60;99.90;;;;;;5007076;28;20204;-79
2023/05/21 12:22:23;;;;;;;20.73;17.27;;;21.20;99.90;;;;;;5008492;28;20227;-77
2023/05/21 12:24:52;;;;;;;19.80;16.20;;;21.10;99.90;;;;;;5008643;28;20206;-78
2023/05/21 12:27:21;;;;;;;19.15;17.23;;;21.40;99.90;;;;;;5014047;28;20234;-78
2023/05/21 12:29:51;;;;;;;20.20;17.75;;;21.60;99.90;;;;;;5012296;28;20226;-78
2023/05/21 12:32:20;;;;;;;18.50;16.50;;;22.00;99.90;;;;;;5014075;28;20235;-78
2023/05/21 12:34:49;;;;;;;19.88;15.60;;;22.50;99.90;;;;;;5016899;28;20212;-78
2023/05/21 12:37:20;;;;;;;21.50;17.02;;;22.60;99.90;;;;;;5017686;28;20199;-78
2023/05/21 12:39:49;;;;;;;19.10;17.02;;;22.50;99.90;;;;;;5011948;28;20208;-78
2023/05/21 12:42:23;;;;;;;18.50;16.50;;;22.50;99.90;;;;;;5013391;28;20211;-77
2023/05/21 12:44:53;;;;;;;18.75;15.77;;;22.90;99.90;;;;;;5011939;28;20196;-78
2023/05/21 12:47:23;;;;;;;16.98;15.27;;;23.30;99.90;;;;;;5011403;28;20204;-79
2023/05/21 12:49:54;;;;;;;18.90;15.95;;;23.50;99.90;;;;;;5009671;28;20222;-79
2023/05/21 12:52:23;;;;;;;18.15;15.70;;;23.70;99.90;;;;;;5025379;28;20247;-78